createdAt,value
2019-04-16T00:05:22.209Z,9.47
2019-04-16T00:10:58.982Z,9.23
2019-04-16T00:16:01.624Z,9.43
2019-04-16T00:21:16.745Z,10.03
2019-04-16T00:26:19.329Z,9.33
2019-04-16T00:31:21.947Z,9.77
2019-04-16T00:36:24.620Z,9.17
2019-04-16T00:41:27.291Z,9.90
2019-04-16T00:46:29.905Z,8.90
2019-04-16T00:51:32.475Z,8.43
2019-04-16T00:56:35.072Z,8.47
2019-04-16T01:01:37.645Z,8.07
2019-04-16T01:06:40.655Z,8.30
2019-04-16T01:11:46.113Z,7.97
2019-04-16T01:16:49.084Z,7.67
2019-04-16T01:21:51.665Z,7.80
2019-04-16T01:26:55.469Z,8.13
2019-04-16T01:32:02.438Z,7.97
2019-04-16T01:37:15.535Z,7.87
2019-04-16T01:42:18.119Z,7.67
2019-04-16T01:47:20.735Z,7.53
2019-04-16T01:52:23.443Z,7.20
2019-04-16T01:57:28.333Z,7.37
2019-04-16T02:02:28.669Z,7.50
2019-04-16T02:07:31.209Z,7.27
2019-04-16T02:12:33.795Z,7.23
2019-04-16T02:17:36.478Z,7.50
2019-04-16T02:22:39.081Z,7.63
2019-04-16T02:27:41.691Z,7.63
2019-04-16T02:32:44.284Z,8.00
2019-04-16T02:37:46.837Z,7.33
2019-04-16T02:42:49.489Z,7.17
2019-04-16T02:47:52.060Z,7.50
2019-04-16T02:53:05.113Z,7.63
2019-04-16T02:58:12.182Z,7.60
2019-04-16T03:03:19.494Z,8.00
2019-04-16T03:08:22.098Z,7.73
2019-04-16T03:13:25.049Z,7.90
2019-04-16T03:18:32.271Z,7.80
2019-04-16T03:23:37.595Z,7.80
2019-04-16T03:28:37.477Z,8.07
2019-04-16T03:33:48.617Z,8.17
2019-04-16T03:38:42.689Z,8.67
2019-04-16T03:43:45.282Z,8.57
2019-04-16T03:48:47.893Z,8.70
2019-04-16T03:53:50.443Z,8.93
2019-04-16T03:58:53.067Z,8.47
2019-04-16T04:03:57.498Z,9.03
2019-04-16T04:08:58.240Z,9.07
2019-04-16T04:14:00.820Z,8.90
2019-04-16T04:19:03.489Z,8.80
2019-04-16T04:24:06.043Z,9.20
2019-04-16T04:29:08.680Z,9.47
2019-04-16T04:34:15.958Z,9.30
2019-04-16T04:39:15.695Z,9.23
2019-04-16T04:44:16.559Z,8.63
2019-04-16T04:49:19.194Z,9.37
2019-04-16T04:54:23.358Z,9.50
2019-04-16T04:59:24.751Z,9.13
2019-04-16T05:04:34.753Z,8.77
2019-04-16T05:09:37.341Z,8.93
2019-04-16T05:14:44.611Z,9.23
2019-04-16T05:19:47.483Z,9.17
2019-04-16T05:24:50.245Z,9.50
2019-04-16T05:29:52.791Z,8.67
2019-04-16T05:34:55.367Z,8.60
2019-04-16T05:39:58.888Z,9.13
2019-04-16T05:45:02.473Z,8.80
2019-04-16T05:50:03.422Z,8.70
2019-04-16T05:55:18.052Z,8.50
2019-04-16T06:00:21.930Z,8.57
2019-04-16T06:05:27.919Z,8.40
2019-04-16T06:10:27.304Z,9.07
2019-04-16T06:15:35.957Z,9.43
2019-04-16T06:20:45.704Z,10.03
2019-04-16T06:25:52.681Z,8.60
2019-04-16T06:31:04.897Z,8.77
2019-04-16T06:37:10.051Z,8.50
2019-04-16T06:42:21.269Z,9.63
2019-04-16T06:47:28.215Z,9.13
2019-04-16T06:52:37.409Z,9.53
2019-04-16T06:57:53.552Z,9.13
2019-04-16T07:03:03.079Z,9.20
2019-04-16T07:08:11.599Z,9.43
2019-04-16T07:13:14.230Z,8.90
2019-04-16T07:18:16.845Z,9.20
2019-04-16T07:23:24.244Z,9.00
2019-04-16T07:28:28.890Z,9.27
2019-04-16T07:34:36.059Z,9.47
2019-04-16T07:39:47.617Z,8.30
2019-04-16T07:44:58.782Z,8.77
2019-04-16T07:50:13.084Z,8.97
2019-04-16T07:55:46.965Z,8.60
2019-04-16T08:00:49.514Z,9.00
2019-04-16T08:05:52.144Z,9.77
2019-04-16T08:10:54.767Z,9.00
2019-04-16T08:15:57.600Z,8.43
2019-04-16T08:21:02.625Z,9.87
2019-04-16T08:26:04.667Z,9.10
2019-04-16T08:31:11.002Z,9.87
2019-04-16T08:36:11.258Z,9.37
2019-04-16T08:41:20.009Z,8.73
2019-04-16T08:46:16.581Z,9.50
2019-04-16T08:51:29.736Z,9.23
2019-04-16T08:56:21.973Z,8.80
2019-04-16T09:01:27.501Z,9.47
2019-04-16T09:06:30.166Z,8.73
2019-04-16T09:11:35.444Z,9.37
2019-04-16T09:16:43.502Z,8.60
2019-04-16T09:21:44.424Z,8.83
2019-04-16T09:26:55.729Z,9.07
2019-04-16T09:32:09.721Z,9.03
2019-04-16T09:37:22.151Z,9.10
2019-04-16T09:42:24.934Z,8.40
2019-04-16T09:47:29.215Z,8.40
2019-04-16T09:52:30.205Z,8.40
2019-04-16T09:57:32.816Z,8.77
2019-04-16T10:02:36.545Z,8.30
2019-04-16T10:07:40.284Z,8.77
2019-04-16T10:12:41.743Z,8.80
2019-04-16T10:17:44.414Z,8.40
2019-04-16T10:22:47.060Z,9.17
2019-04-16T10:27:54.621Z,7.73
2019-04-16T10:32:57.257Z,9.40
2019-04-16T10:38:03.069Z,8.47
2019-04-16T10:43:11.148Z,8.30
2019-04-16T10:48:19.433Z,7.93
2019-04-16T10:53:27.572Z,8.60
2019-04-16T10:58:50.076Z,8.17
2019-04-16T11:04:04.846Z,8.20
2019-04-16T11:09:06.666Z,9.33
2019-04-16T11:14:09.539Z,8.47
2019-04-16T11:19:12.814Z,8.00
2019-04-16T11:24:15.890Z,7.80
2019-04-16T11:29:18.578Z,8.67
2019-04-16T11:34:21.261Z,7.70
2019-04-16T11:39:24.018Z,8.17
2019-04-16T11:44:26.775Z,8.67
2019-04-16T11:49:29.505Z,8.53
2019-04-16T11:54:32.193Z,8.03
2019-04-16T11:59:38.135Z,7.40
2019-04-16T12:04:44.936Z,6.90
2019-04-16T12:09:56.961Z,7.63
2019-04-16T12:15:10.018Z,7.67
2019-04-16T12:20:20.334Z,7.43
2019-04-16T12:25:31.566Z,6.23
2019-04-16T12:30:38.838Z,8.13
2019-04-16T12:35:48.938Z,8.20
2019-04-16T12:40:57.121Z,7.37
2019-04-16T12:46:07.575Z,7.60
2019-04-16T12:51:15.779Z,7.97
2019-04-16T12:57:23.103Z,7.03
2019-04-16T13:02:37.373Z,6.83
2019-04-16T13:07:45.688Z,7.20
2019-04-16T13:12:53.948Z,6.97
2019-04-16T13:18:06.469Z,6.53
2019-04-16T13:23:15.357Z,8.17
2019-04-16T13:28:20.352Z,7.87
2019-04-16T13:33:20.734Z,8.87
2019-04-16T13:38:24.142Z,7.37
2019-04-16T13:43:33.809Z,5.63
2019-04-16T13:49:40.457Z,6.90
2019-04-16T13:55:08.365Z,6.37
2019-04-16T14:00:12.938Z,6.20
2019-04-16T14:05:15.447Z,6.90
2019-04-16T14:10:18.077Z,6.00
2019-04-16T14:15:31.887Z,5.83
2019-04-16T14:20:23.690Z,5.40
2019-04-16T14:25:26.382Z,6.70
2019-04-16T14:30:32.175Z,6.40
2019-04-16T14:35:40.074Z,7.90
2019-04-16T14:40:42.273Z,7.13
2019-04-16T14:45:57.678Z,6.40
2019-04-16T14:50:48.127Z,6.53
2019-04-16T14:56:00.554Z,5.77
2019-04-16T15:01:00.998Z,5.90
2019-04-16T15:06:08.246Z,6.60
2019-04-16T15:12:14.716Z,6.67
2019-04-16T15:17:26.237Z,5.93
2019-04-16T15:22:33.912Z,6.00
2019-04-16T15:27:49.395Z,6.07
2019-04-16T15:33:52.841Z,6.00
2019-04-16T15:38:58.957Z,6.23
2019-04-16T15:44:06.346Z,6.53
2019-04-16T15:49:14.379Z,6.30
2019-04-16T15:54:58.939Z,5.50
2019-04-16T16:00:07.149Z,5.70
2019-04-16T16:05:14.475Z,5.53
2019-04-16T16:10:19.797Z,5.80
2019-04-16T16:15:22.453Z,5.33
2019-04-16T16:20:25.052Z,5.37
2019-04-16T16:25:27.702Z,6.03
2019-04-16T16:30:30.341Z,5.70
2019-04-16T16:35:34.777Z,5.60
2019-04-16T16:40:35.715Z,5.37
2019-04-16T16:45:42.975Z,6.07
2019-04-16T16:50:45.946Z,6.47
2019-04-16T16:55:51.859Z,6.00
2019-04-16T17:01:15.208Z,5.27
2019-04-16T17:06:18.750Z,5.27
2019-04-16T17:11:21.415Z,5.57
2019-04-16T17:16:24.180Z,5.30
2019-04-16T17:21:26.782Z,5.20
2019-04-16T17:26:29.491Z,7.00
2019-04-16T17:31:35.816Z,5.87
2019-04-16T17:36:34.818Z,5.90
2019-04-16T17:41:41.962Z,5.93
2019-04-16T17:47:09.367Z,5.80
2019-04-16T17:52:16.701Z,5.80
2019-04-16T17:58:27.380Z,5.93
2019-04-16T18:04:31.911Z,6.10
2019-04-16T18:09:38.769Z,5.83
2019-04-16T18:14:47.037Z,5.73
2019-04-16T18:19:55.175Z,5.87
2019-04-16T18:25:05.129Z,5.90
2019-04-16T18:30:13.590Z,6.40
2019-04-16T18:35:20.831Z,5.47
2019-04-16T18:40:34.955Z,5.60
2019-04-16T18:46:44.038Z,6.53
2019-04-16T18:51:46.778Z,6.80
2019-04-16T18:56:49.423Z,6.87
2019-04-16T19:01:54.775Z,6.97
2019-04-16T19:06:57.489Z,6.90
2019-04-16T19:12:00.349Z,6.87
2019-04-16T19:17:02.908Z,7.40
2019-04-16T19:22:05.916Z,6.60
2019-04-16T19:27:08.725Z,6.97
2019-04-16T19:32:11.399Z,7.77
2019-04-16T19:37:14.039Z,6.63
2019-04-16T19:42:17.045Z,6.63
2019-04-16T19:47:19.923Z,6.57
2019-04-16T19:52:22.689Z,6.93
2019-04-16T19:57:26.131Z,6.33
2019-04-16T20:02:32.928Z,6.57
2019-04-16T20:07:33.011Z,6.70
2019-04-16T20:12:34.198Z,6.70
2019-04-16T20:17:36.821Z,6.57
2019-04-16T20:22:39.493Z,6.50
2019-04-16T20:27:42.134Z,6.80
2019-04-16T20:32:44.747Z,13.80
2019-04-16T20:37:50.392Z,8.93
2019-04-16T20:42:50.201Z,7.37
2019-04-16T20:47:52.893Z,7.37
2019-04-16T20:52:55.730Z,6.80
2019-04-16T20:57:59.998Z,7.27
2019-04-16T21:03:03.016Z,18.00
2019-04-16T21:08:03.730Z,8.53
2019-04-16T21:13:06.599Z,7.50
2019-04-16T21:18:11.875Z,6.83
2019-04-16T21:23:11.934Z,9.77
2019-04-16T21:28:21.993Z,7.10
2019-04-16T21:33:29.221Z,6.27
2019-04-16T21:38:42.113Z,6.00
2019-04-16T21:43:42.003Z,6.37
2019-04-16T21:48:44.689Z,6.00
2019-04-16T21:53:47.367Z,6.00
2019-04-16T21:58:50.386Z,6.37
2019-04-16T22:03:57.281Z,6.17
2019-04-16T22:09:03.833Z,5.80
2019-04-16T22:14:03.284Z,7.83
2019-04-16T22:19:06.053Z,5.90
2019-04-16T22:24:08.709Z,6.33
2019-04-16T22:29:15.414Z,6.13
2019-04-16T22:34:14.117Z,6.00
2019-04-16T22:39:25.252Z,6.10
2019-04-16T22:45:37.295Z,5.70
2019-04-16T22:50:39.977Z,6.03
2019-04-16T22:55:42.814Z,5.73
2019-04-16T23:00:45.555Z,6.60
2019-04-16T23:05:48.167Z,6.20
2019-04-16T23:10:52.120Z,6.50
2019-04-16T23:15:53.631Z,5.97
2019-04-16T23:20:56.233Z,5.60
2019-04-16T23:26:00.733Z,6.03
2019-04-16T23:31:01.741Z,6.40
2019-04-16T23:36:04.537Z,5.87
2019-04-16T23:41:07.172Z,5.80
2019-04-16T23:47:16.163Z,6.30
2019-04-16T23:52:22.403Z,6.40
2019-04-16T23:57:46.893Z,6.47
